sensor_id;sensor_type;location;lat;lon;timestamp;P1;durP1;ratioP1;P2;durP2;ratioP2
73959;SDS011;62316;48.920;2.342;2023-03-04T05:01:20;56.50;;;41.50;;
73959;SDS011;62316;48.920;2.342;2023-03-04T05:03:52;60.00;;;46.50;;
73959;SDS011;62316;48.920;2.342;2023-03-04T05:06:19;63.75;;;47.00;;
73959;SDS011;62316;48.920;2.342;2023-03-04T05:08:46;57.75;;;42.25;;
73959;SDS011;62316;48.920;2.342;2023-03-04T05:11:11;57.50;;;46.00;;
73959;SDS011;62316;48.920;2.342;2023-03-04T05:13:36;59.75;;;44.00;;
73959;SDS011;62316;48.920;2.342;2023-03-04T05:16:02;56.50;;;46.00;;
73959;SDS011;62316;48.920;2.342;2023-03-04T05:18:27;51.25;;;42.25;;
73959;SDS011;62316;48.920;2.342;2023-03-04T05:20:54;53.00;;;42.50;;
73959;SDS011;62316;48.920;2.342;2023-03-04T05:23:24;49.50;;;42.50;;
73959;SDS011;62316;48.920;2.342;2023-03-04T05:25:50;57.00;;;46.75;;
73959;SDS011;62316;48.920;2.342;2023-03-04T05:28:16;52.75;;;40.25;;
73959;SDS011;62316;48.920;2.342;2023-03-04T05:30:42;55.25;;;38.00;;
73959;SDS011;62316;48.920;2.342;2023-03-04T05:33:08;62.00;;;44.50;;
73959;SDS011;62316;48.920;2.342;2023-03-04T05:35:35;48.25;;;42.25;;
73959;SDS011;62316;48.920;2.342;2023-03-04T05:38:01;61.50;;;46.25;;
73959;SDS011;62316;48.920;2.342;2023-03-04T05:40:27;55.75;;;42.25;;
73959;SDS011;62316;48.920;2.342;2023-03-04T05:42:52;51.75;;;43.00;;
73959;SDS011;62316;48.920;2.342;2023-03-04T05:45:18;50.75;;;43.75;;
73959;SDS011;62316;48.920;2.342;2023-03-04T05:47:43;50.75;;;42.00;;
73959;SDS011;62316;48.920;2.342;2023-03-04T05:50:09;54.00;;;43.75;;
73959;SDS011;62316;48.920;2.342;2023-03-04T05:52:34;54.75;;;44.00;;
73959;SDS011;62316;48.920;2.342;2023-03-04T05:55:00;56.50;;;43.75;;
73959;SDS011;62316;48.920;2.342;2023-03-04T05:57:25;59.25;;;46.50;;
73959;SDS011;62316;48.920;2.342;2023-03-04T05:59:51;47.25;;;39.75;;
73959;SDS011;62316;48.920;2.342;2023-03-04T06:02:16;61.25;;;45.25;;
73959;SDS011;62316;48.920;2.342;2023-03-04T06:04:41;47.00;;;39.00;;
73959;SDS011;62316;48.920;2.342;2023-03-04T06:07:07;46.50;;;40.50;;
73959;SDS011;62316;48.920;2.342;2023-03-04T06:09:32;47.25;;;39.75;;
73959;SDS011;62316;48.920;2.342;2023-03-04T06:11:58;40.00;;;38.75;;
73959;SDS011;62316;48.920;2.342;2023-03-04T06:14:23;50.25;;;43.00;;
73959;SDS011;62316;48.920;2.342;2023-03-04T06:16:49;60.75;;;43.50;;
73959;SDS011;62316;48.920;2.342;2023-03-04T06:19:14;54.50;;;42.50;;
73959;SDS011;62316;48.920;2.342;2023-03-04T06:21:39;55.50;;;41.75;;
73959;SDS011;62316;48.920;2.342;2023-03-04T06:24:05;47.75;;;40.00;;
73959;SDS011;62316;48.920;2.342;2023-03-04T06:26:30;46.75;;;42.50;;
73959;SDS011;62316;48.920;2.342;2023-03-04T06:28:56;55.00;;;43.25;;
73959;SDS011;62316;48.920;2.342;2023-03-04T06:31:27;55.25;;;40.00;;
73959;SDS011;62316;48.920;2.342;2023-03-04T06:33:53;51.25;;;41.25;;
73959;SDS011;62316;48.920;2.342;2023-03-04T06:36:18;52.50;;;43.00;;
73959;SDS011;62316;48.920;2.342;2023-03-04T06:38:44;48.00;;;39.50;;
73959;SDS011;62316;48.920;2.342;2023-03-04T06:41:10;57.75;;;41.00;;
73959;SDS011;62316;48.920;2.342;2023-03-04T06:43:36;50.50;;;41.00;;
73959;SDS011;62316;48.920;2.342;2023-03-04T06:46:02;56.25;;;44.50;;
73959;SDS011;62316;48.920;2.342;2023-03-04T06:48:27;54.25;;;44.00;;
73959;SDS011;62316;48.920;2.342;2023-03-04T06:50:53;53.25;;;43.75;;
73959;SDS011;62316;48.920;2.342;2023-03-04T06:53:18;57.00;;;45.25;;
73959;SDS011;62316;48.920;2.342;2023-03-04T06:55:43;50.50;;;42.75;;
73959;SDS011;62316;48.920;2.342;2023-03-04T06:58:09;47.75;;;42.00;;
73959;SDS011;62316;48.920;2.342;2023-03-04T07:00:34;43.00;;;36.00;;
73959;SDS011;62316;48.920;2.342;2023-03-04T07:03:00;52.75;;;44.75;;
73959;SDS011;62316;48.920;2.342;2023-03-04T07:05:26;39.00;;;37.25;;
73959;SDS011;62316;48.920;2.342;2023-03-04T07:07:51;50.00;;;43.25;;
73959;SDS011;62316;48.920;2.342;2023-03-04T07:10:17;50.00;;;40.00;;
73959;SDS011;62316;48.920;2.342;2023-03-04T07:12:43;56.00;;;43.25;;
73959;SDS011;62316;48.920;2.342;2023-03-04T07:15:08;61.25;;;46.00;;
73959;SDS011;62316;48.920;2.342;2023-03-04T07:17:34;62.00;;;47.75;;
73959;SDS011;62316;48.920;2.342;2023-03-04T07:19:59;50.50;;;43.50;;
73959;SDS011;62316;48.920;2.342;2023-03-04T07:22:25;53.50;;;45.50;;
73959;SDS011;62316;48.920;2.342;2023-03-04T07:24:50;53.00;;;43.00;;
73959;SDS011;62316;48.920;2.342;2023-03-04T07:27:15;57.25;;;44.25;;
73959;SDS011;62316;48.920;2.342;2023-03-04T07:29:41;58.25;;;42.50;;
73959;SDS011;62316;48.920;2.342;2023-03-04T07:32:07;51.75;;;42.25;;
73959;SDS011;62316;48.920;2.342;2023-03-04T07:34:32;54.25;;;44.00;;
73959;SDS011;62316;48.920;2.342;2023-03-04T07:36:58;55.00;;;43.75;;
73959;SDS011;62316;48.920;2.342;2023-03-04T07:39:23;53.25;;;42.00;;
73959;SDS011;62316;48.920;2.342;2023-03-04T07:41:49;56.00;;;43.00;;
73959;SDS011;62316;48.920;2.342;2023-03-04T07:44:14;59.75;;;46.00;;
73959;SDS011;62316;48.920;2.342;2023-03-04T07:46:40;54.75;;;42.25;;
73959;SDS011;62316;48.920;2.342;2023-03-04T07:49:05;60.50;;;46.25;;
73959;SDS011;62316;48.920;2.342;2023-03-04T07:51:31;52.75;;;45.00;;
73959;SDS011;62316;48.920;2.342;2023-03-04T07:53:58;55.25;;;44.50;;
73959;SDS011;62316;48.920;2.342;2023-03-04T07:56:25;62.75;;;42.50;;
73959;SDS011;62316;48.920;2.342;2023-03-04T07:58:53;56.75;;;46.00;;
73959;SDS011;62316;48.920;2.342;2023-03-04T08:01:19;48.50;;;41.75;;
73959;SDS011;62316;48.920;2.342;2023-03-04T08:03:48;47.50;;;39.25;;
73959;SDS011;62316;48.920;2.342;2023-03-04T08:06:14;50.75;;;42.25;;
73959;SDS011;62316;48.920;2.342;2023-03-04T08:08:41;48.00;;;40.25;;
73959;SDS011;62316;48.920;2.342;2023-03-04T08:11:15;45.00;;;36.50;;
73959;SDS011;62316;48.920;2.342;2023-03-04T08:13:42;51.25;;;40.50;;
73959;SDS011;62316;48.920;2.342;2023-03-04T08:16:09;44.25;;;39.00;;
73959;SDS011;62316;48.920;2.342;2023-03-04T08:18:36;53.00;;;43.00;;
73959;SDS011;62316;48.920;2.342;2023-03-04T08:21:06;51.00;;;40.75;;
73959;SDS011;62316;48.920;2.342;2023-03-04T08:23:33;54.75;;;40.50;;
73959;SDS011;62316;48.920;2.342;2023-03-04T08:25:58;49.00;;;41.25;;
73959;SDS011;62316;48.920;2.342;2023-03-04T08:28:24;55.50;;;41.75;;
73959;SDS011;62316;48.920;2.342;2023-03-04T08:30:53;48.50;;;40.75;;
73959;SDS011;62316;48.920;2.342;2023-03-04T08:33:18;49.00;;;40.00;;
73959;SDS011;62316;48.920;2.342;2023-03-04T08:35:44;37.00;;;31.50;;
73959;SDS011;62316;48.920;2.342;2023-03-04T08:38:09;45.25;;;36.75;;
73959;SDS011;62316;48.920;2.342;2023-03-04T08:40:34;40.25;;;38.25;;
73959;SDS011;62316;48.920;2.342;2023-03-04T08:43:00;48.00;;;40.50;;
73959;SDS011;62316;48.920;2.342;2023-03-04T08:45:26;45.00;;;38.50;;
73959;SDS011;62316;48.920;2.342;2023-03-04T08:47:51;48.50;;;39.25;;
73959;SDS011;62316;48.920;2.342;2023-03-04T08:50:16;48.25;;;41.25;;
73959;SDS011;62316;48.920;2.342;2023-03-04T08:52:42;44.50;;;39.00;;
73959;SDS011;62316;48.920;2.342;2023-03-04T08:55:07;51.50;;;40.75;;
73959;SDS011;62316;48.920;2.342;2023-03-04T08:57:33;43.75;;;39.25;;
73959;SDS011;62316;48.920;2.342;2023-03-04T08:59:58;46.00;;;37.00;;
73959;SDS011;62316;48.920;2.342;2023-03-04T09:02:24;41.50;;;36.50;;
73959;SDS011;62316;48.920;2.342;2023-03-04T09:04:49;51.00;;;41.75;;
73959;SDS011;62316;48.920;2.342;2023-03-04T09:07:14;36.75;;;30.75;;
73959;SDS011;62316;48.920;2.342;2023-03-04T09:09:40;45.25;;;36.75;;
73959;SDS011;62316;48.920;2.342;2023-03-04T09:12:06;40.75;;;34.00;;
73959;SDS011;62316;48.920;2.342;2023-03-04T09:14:32;39.75;;;26.25;;
73959;SDS011;62316;48.920;2.342;2023-03-04T09:16:59;27.75;;;26.75;;
73959;SDS011;62316;48.920;2.342;2023-03-04T09:19:26;47.50;;;38.50;;
73959;SDS011;62316;48.920;2.342;2023-03-04T09:21:52;44.00;;;35.75;;
73959;SDS011;62316;48.920;2.342;2023-03-04T09:24:19;38.00;;;32.00;;
73959;SDS011;62316;48.920;2.342;2023-03-04T09:26:44;53.25;;;37.75;;
73959;SDS011;62316;48.920;2.342;2023-03-04T09:29:09;50.00;;;37.50;;
73959;SDS011;62316;48.920;2.342;2023-03-04T09:31:35;35.75;;;31.00;;
73959;SDS011;62316;48.920;2.342;2023-03-04T09:34:00;47.50;;;41.75;;
73959;SDS011;62316;48.920;2.342;2023-03-04T09:36:26;45.75;;;37.25;;
73959;SDS011;62316;48.920;2.342;2023-03-04T09:38:51;40.25;;;36.50;;
73959;SDS011;62316;48.920;2.342;2023-03-04T09:41:17;47.00;;;40.50;;
73959;SDS011;62316;48.920;2.342;2023-03-04T09:43:46;48.75;;;39.50;;
73959;SDS011;62316;48.920;2.342;2023-03-04T09:46:17;48.75;;;39.25;;
73959;SDS011;62316;48.920;2.342;2023-03-04T09:48:51;49.25;;;40.50;;
73959;SDS011;62316;48.920;2.342;2023-03-04T09:54:04;60.50;;;46.50;;
73959;SDS011;62316;48.920;2.342;2023-03-04T09:56:37;53.50;;;42.25;;
73959;SDS011;62316;48.920;2.342;2023-03-04T09:59:13;50.25;;;41.25;;
73959;SDS011;62316;48.920;2.342;2023-03-04T10:01:44;40.50;;;37.75;;
73959;SDS011;62316;48.920;2.342;2023-03-04T10:04:12;45.75;;;35.25;;
73959;SDS011;62316;48.920;2.342;2023-03-04T10:06:42;39.25;;;37.50;;
73959;SDS011;62316;48.920;2.342;2023-03-04T10:09:29;51.00;;;39.00;;
73959;SDS011;62316;48.920;2.342;2023-03-04T10:12:04;50.00;;;41.00;;
73959;SDS011;62316;48.920;2.342;2023-03-04T10:17:17;42.25;;;37.00;;
73959;SDS011;62316;48.920;2.342;2023-03-04T10:24:44;55.75;;;42.00;;
73959;SDS011;62316;48.920;2.342;2023-03-04T10:27:11;41.25;;;34.25;;
73959;SDS011;62316;48.920;2.342;2023-03-04T10:29:40;46.50;;;36.75;;
73959;SDS011;62316;48.920;2.342;2023-03-04T10:32:07;43.25;;;38.00;;
73959;SDS011;62316;48.920;2.342;2023-03-04T10:34:37;44.00;;;39.00;;
73959;SDS011;62316;48.920;2.342;2023-03-04T10:37:06;36.75;;;30.00;;
73959;SDS011;62316;48.920;2.342;2023-03-04T10:39:34;37.25;;;31.25;;
73959;SDS011;62316;48.920;2.342;2023-03-04T10:44:43;29.00;;;23.50;;
73959;SDS011;62316;48.920;2.342;2023-03-04T10:47:16;38.00;;;34.50;;
73959;SDS011;62316;48.920;2.342;2023-03-04T10:49:57;32.50;;;28.00;;
73959;SDS011;62316;48.920;2.342;2023-03-04T10:52:26;27.00;;;24.50;;
73959;SDS011;62316;48.920;2.342;2023-03-04T10:55:06;33.75;;;26.75;;
73959;SDS011;62316;48.920;2.342;2023-03-04T10:57:40;24.00;;;19.25;;
73959;SDS011;62316;48.920;2.342;2023-03-04T11:00:21;29.50;;;24.25;;
73959;SDS011;62316;48.920;2.342;2023-03-04T11:03:16;22.25;;;21.75;;
73959;SDS011;62316;48.920;2.342;2023-03-04T11:06:06;33.25;;;23.25;;
73959;SDS011;62316;48.920;2.342;2023-03-04T11:08:40;36.50;;;30.00;;
73959;SDS011;62316;48.920;2.342;2023-03-04T11:11:20;38.75;;;31.00;;
73959;SDS011;62316;48.920;2.342;2023-03-04T11:13:57;29.00;;;26.75;;
73959;SDS011;62316;48.920;2.342;2023-03-04T11:16:26;47.00;;;39.25;;
73959;SDS011;62316;48.920;2.342;2023-03-04T11:18:57;34.75;;;30.50;;
73959;SDS011;62316;48.920;2.342;2023-03-04T11:21:29;37.50;;;32.50;;
73959;SDS011;62316;48.920;2.342;2023-03-04T11:24:05;26.50;;;24.50;;
73959;SDS011;62316;48.920;2.342;2023-03-04T11:26:45;26.00;;;22.25;;
73959;SDS011;62316;48.920;2.342;2023-03-04T11:32:25;33.25;;;25.75;;
73959;SDS011;62316;48.920;2.342;2023-03-04T11:42:55;29.75;;;28.25;;
73959;SDS011;62316;48.920;2.342;2023-03-04T11:45:52;41.25;;;30.50;;
73959;SDS011;62316;48.920;2.342;2023-03-04T11:54:04;35.50;;;32.75;;
73959;SDS011;62316;48.920;2.342;2023-03-04T12:02:12;27.25;;;21.00;;
73959;SDS011;62316;48.920;2.342;2023-03-04T12:04:42;29.25;;;26.25;;
73959;SDS011;62316;48.920;2.342;2023-03-04T12:15:28;43.00;;;37.00;;
73959;SDS011;62316;48.920;2.342;2023-03-04T12:23:39;34.25;;;30.25;;
73959;SDS011;62316;48.920;2.342;2023-03-04T12:29:29;24.00;;;23.50;;
73959;SDS011;62316;48.920;2.342;2023-03-04T12:32:13;24.50;;;17.00;;
73959;SDS011;62316;48.920;2.342;2023-03-04T12:45:26;22.00;;;16.25;;
73959;SDS011;62316;48.920;2.342;2023-03-04T12:54:34;12.00;;;11.00;;
73959;SDS011;62316;48.920;2.342;2023-03-04T12:57:01;19.50;;;17.00;;
73959;SDS011;62316;48.920;2.342;2023-03-04T12:59:42;22.75;;;17.75;;
73959;SDS011;62316;48.920;2.342;2023-03-04T13:02:30;17.25;;;17.25;;
73959;SDS011;62316;48.920;2.342;2023-03-04T13:10:00;22.25;;;18.50;;
73959;SDS011;62316;48.920;2.342;2023-03-04T13:12:47;24.50;;;19.25;;
73959;SDS011;62316;48.920;2.342;2023-03-04T13:17:55;16.25;;;13.00;;
73959;SDS011;62316;48.920;2.342;2023-03-04T13:20:24;20.25;;;19.25;;
73959;SDS011;62316;48.920;2.342;2023-03-04T13:22:56;26.50;;;20.00;;
73959;SDS011;62316;48.920;2.342;2023-03-04T13:25:33;20.25;;;18.25;;
73959;SDS011;62316;48.920;2.342;2023-03-04T13:28:25;16.25;;;14.25;;
73959;SDS011;62316;48.920;2.342;2023-03-04T13:35:58;28.75;;;21.25;;
73959;SDS011;62316;48.920;2.342;2023-03-04T13:43:43;17.00;;;14.25;;
73959;SDS011;62316;48.920;2.342;2023-03-04T13:46:27;21.00;;;16.75;;
73959;SDS011;62316;48.920;2.342;2023-03-04T13:56:25;22.00;;;16.75;;
73959;SDS011;62316;48.920;2.342;2023-03-04T13:59:02;21.25;;;17.75;;
73959;SDS011;62316;48.920;2.342;2023-03-04T14:01:31;13.00;;;12.00;;
73959;SDS011;62316;48.920;2.342;2023-03-04T14:03:58;17.50;;;17.25;;
73959;SDS011;62316;48.920;2.342;2023-03-04T14:06:25;10.75;;;10.75;;
73959;SDS011;62316;48.920;2.342;2023-03-04T14:08:53;12.50;;;11.00;;
73959;SDS011;62316;48.920;2.342;2023-03-04T14:11:35;13.00;;;10.75;;
73959;SDS011;62316;48.920;2.342;2023-03-04T14:14:06;10.00;;;9.50;;
73959;SDS011;62316;48.920;2.342;2023-03-04T14:16:39;22.25;;;16.25;;
73959;SDS011;62316;48.920;2.342;2023-03-04T14:19:16;12.50;;;12.50;;
73959;SDS011;62316;48.920;2.342;2023-03-04T14:21:47;13.50;;;11.75;;
73959;SDS011;62316;48.920;2.342;2023-03-04T14:24:13;13.00;;;11.00;;
73959;SDS011;62316;48.920;2.342;2023-03-04T14:26:43;17.25;;;11.50;;
73959;SDS011;62316;48.920;2.342;2023-03-04T14:31:51;12.00;;;10.75;;
73959;SDS011;62316;48.920;2.342;2023-03-04T14:34:25;15.25;;;11.00;;
73959;SDS011;62316;48.920;2.342;2023-03-04T14:36:56;17.75;;;13.25;;
73959;SDS011;62316;48.920;2.342;2023-03-04T14:39:21;13.50;;;11.50;;
73959;SDS011;62316;48.920;2.342;2023-03-04T14:41:50;11.00;;;9.00;;
73959;SDS011;62316;48.920;2.342;2023-03-04T14:47:04;14.75;;;11.75;;
73959;SDS011;62316;48.920;2.342;2023-03-04T14:49:38;16.25;;;12.75;;
73959;SDS011;62316;48.920;2.342;2023-03-04T14:52:04;14.25;;;13.25;;
73959;SDS011;62316;48.920;2.342;2023-03-04T14:57:21;14.50;;;11.75;;
73959;SDS011;62316;48.920;2.342;2023-03-04T14:59:49;16.50;;;13.75;;
73959;SDS011;62316;48.920;2.342;2023-03-04T15:02:26;13.75;;;12.75;;
73959;SDS011;62316;48.920;2.342;2023-03-04T15:05:19;16.25;;;13.00;;
73959;SDS011;62316;48.920;2.342;2023-03-04T15:07:58;19.00;;;11.00;;
73959;SDS011;62316;48.920;2.342;2023-03-04T15:10:29;14.75;;;11.75;;
73959;SDS011;62316;48.920;2.342;2023-03-04T15:12:58;19.00;;;14.75;;
73959;SDS011;62316;48.920;2.342;2023-03-04T15:15:36;12.50;;;11.25;;
73959;SDS011;62316;48.920;2.342;2023-03-04T15:18:22;16.50;;;11.50;;
73959;SDS011;62316;48.920;2.342;2023-03-04T15:21:03;17.25;;;12.00;;
73959;SDS011;62316;48.920;2.342;2023-03-04T15:23:30;14.50;;;12.50;;
73959;SDS011;62316;48.920;2.342;2023-03-04T15:25:59;13.75;;;13.75;;
73959;SDS011;62316;48.920;2.342;2023-03-04T15:28:31;13.25;;;13.25;;
73959;SDS011;62316;48.920;2.342;2023-03-04T15:30:59;15.00;;;13.00;;
73959;SDS011;62316;48.920;2.342;2023-03-04T15:33:24;12.75;;;12.25;;
73959;SDS011;62316;48.920;2.342;2023-03-04T15:35:58;17.50;;;12.00;;
73959;SDS011;62316;48.920;2.342;2023-03-04T15:38:31;12.00;;;11.00;;
73959;SDS011;62316;48.920;2.342;2023-03-04T15:40:57;16.00;;;11.25;;
73959;SDS011;62316;48.920;2.342;2023-03-04T15:43:23;20.75;;;15.50;;
73959;SDS011;62316;48.920;2.342;2023-03-04T15:45:49;18.75;;;15.50;;
73959;SDS011;62316;48.920;2.342;2023-03-04T15:48:16;17.00;;;12.50;;
73959;SDS011;62316;48.920;2.342;2023-03-04T15:50:46;12.75;;;10.75;;
73959;SDS011;62316;48.920;2.342;2023-03-04T15:53:15;13.50;;;11.75;;
73959;SDS011;62316;48.920;2.342;2023-03-04T15:55:44;15.00;;;13.00;;
73959;SDS011;62316;48.920;2.342;2023-03-04T15:58:10;12.75;;;12.75;;
73959;SDS011;62316;48.920;2.342;2023-03-04T16:00:36;17.00;;;11.00;;
73959;SDS011;62316;48.920;2.342;2023-03-04T16:03:01;10.75;;;10.00;;
73959;SDS011;62316;48.920;2.342;2023-03-04T16:05:27;10.00;;;7.50;;
73959;SDS011;62316;48.920;2.342;2023-03-04T16:07:52;8.50;;;7.75;;
73959;SDS011;62316;48.920;2.342;2023-03-04T16:12:50;7.75;;;7.75;;
73959;SDS011;62316;48.920;2.342;2023-03-04T16:15:17;10.00;;;9.00;;
73959;SDS011;62316;48.920;2.342;2023-03-04T16:17:45;10.50;;;10.50;;
73959;SDS011;62316;48.920;2.342;2023-03-04T16:20:11;11.00;;;10.00;;
73959;SDS011;62316;48.920;2.342;2023-03-04T16:22:39;12.25;;;11.25;;
73959;SDS011;62316;48.920;2.342;2023-03-04T16:25:08;7.50;;;7.50;;
73959;SDS011;62316;48.920;2.342;2023-03-04T16:27:35;9.00;;;7.50;;
73959;SDS011;62316;48.920;2.342;2023-03-04T16:30:01;6.50;;;6.50;;
73959;SDS011;62316;48.920;2.342;2023-03-04T16:32:26;7.50;;;7.50;;
73959;SDS011;62316;48.920;2.342;2023-03-04T16:34:52;7.75;;;7.75;;
73959;SDS011;62316;48.920;2.342;2023-03-04T16:37:18;11.75;;;7.25;;
73959;SDS011;62316;48.920;2.342;2023-03-04T16:39:44;10.00;;;10.00;;
73959;SDS011;62316;48.920;2.342;2023-03-04T16:42:16;6.00;;;6.00;;
73959;SDS011;62316;48.920;2.342;2023-03-04T16:44:43;9.75;;;9.00;;
73959;SDS011;62316;48.920;2.342;2023-03-04T16:47:09;9.50;;;6.75;;
73959;SDS011;62316;48.920;2.342;2023-03-04T16:49:35;8.50;;;5.75;;
73959;SDS011;62316;48.920;2.342;2023-03-04T16:52:00;4.00;;;2.00;;
73959;SDS011;62316;48.920;2.342;2023-03-04T16:54:27;4.50;;;4.00;;
73959;SDS011;62316;48.920;2.342;2023-03-04T16:56:54;7.50;;;5.75;;
73959;SDS011;62316;48.920;2.342;2023-03-04T16:59:20;5.50;;;5.50;;
73959;SDS011;62316;48.920;2.342;2023-03-04T17:01:45;12.50;;;12.50;;
73959;SDS011;62316;48.920;2.342;2023-03-04T17:04:11;6.25;;;5.00;;
73959;SDS011;62316;48.920;2.342;2023-03-04T17:06:37;6.00;;;5.50;;
73959;SDS011;62316;48.920;2.342;2023-03-04T17:09:07;9.25;;;8.00;;
73959;SDS011;62316;48.920;2.342;2023-03-04T17:11:39;7.50;;;7.00;;
73959;SDS011;62316;48.920;2.342;2023-03-04T17:14:05;25.75;;;21.00;;
73959;SDS011;62316;48.920;2.342;2023-03-04T17:16:30;16.00;;;11.00;;
73959;SDS011;62316;48.920;2.342;2023-03-04T17:18:55;8.00;;;7.50;;
73959;SDS011;62316;48.920;2.342;2023-03-04T17:21:23;10.00;;;8.50;;
73959;SDS011;62316;48.920;2.342;2023-03-04T17:23:51;10.50;;;6.25;;
73959;SDS011;62316;48.920;2.342;2023-03-04T17:26:17;12.25;;;9.50;;
73959;SDS011;62316;48.920;2.342;2023-03-04T17:28:47;8.75;;;8.25;;
73959;SDS011;62316;48.920;2.342;2023-03-04T17:31:15;7.50;;;5.00;;
73959;SDS011;62316;48.920;2.342;2023-03-04T17:33:44;8.75;;;7.50;;
73959;SDS011;62316;48.920;2.342;2023-03-04T17:36:10;18.50;;;14.25;;
73959;SDS011;62316;48.920;2.342;2023-03-04T17:38:36;12.00;;;11.00;;
73959;SDS011;62316;48.920;2.342;2023-03-04T17:41:07;14.00;;;11.00;;
73959;SDS011;62316;48.920;2.342;2023-03-04T17:43:47;24.25;;;21.00;;
73959;SDS011;62316;48.920;2.342;2023-03-04T17:46:14;13.75;;;12.00;;
73959;SDS011;62316;48.920;2.342;2023-03-04T17:48:41;66.00;;;50.00;;
73959;SDS011;62316;48.920;2.342;2023-03-04T17:51:09;9.00;;;9.00;;
73959;SDS011;62316;48.920;2.342;2023-03-04T17:53:35;8.75;;;8.25;;
73959;SDS011;62316;48.920;2.342;2023-03-04T17:56:02;17.50;;;12.25;;
73959;SDS011;62316;48.920;2.342;2023-03-04T17:58:29;10.50;;;9.25;;
73959;SDS011;62316;48.920;2.342;2023-03-04T18:03:28;14.25;;;14.25;;
73959;SDS011;62316;48.920;2.342;2023-03-04T18:05:54;10.25;;;9.75;;
73959;SDS011;62316;48.920;2.342;2023-03-04T18:08:19;16.75;;;16.75;;
73959;SDS011;62316;48.920;2.342;2023-03-04T18:10:44;9.00;;;8.75;;
73959;SDS011;62316;48.920;2.342;2023-03-04T18:13:10;18.00;;;13.50;;
73959;SDS011;62316;48.920;2.342;2023-03-04T18:15:37;14.00;;;12.50;;
73959;SDS011;62316;48.920;2.342;2023-03-04T18:18:02;14.50;;;13.75;;
73959;SDS011;62316;48.920;2.342;2023-03-04T18:20:27;14.00;;;12.25;;
73959;SDS011;62316;48.920;2.342;2023-03-04T18:22:53;12.25;;;11.00;;
73959;SDS011;62316;48.920;2.342;2023-03-04T18:25:21;13.00;;;13.00;;
73959;SDS011;62316;48.920;2.342;2023-03-04T18:27:46;14.50;;;13.75;;
73959;SDS011;62316;48.920;2.342;2023-03-04T18:30:13;18.50;;;14.50;;
73959;SDS011;62316;48.920;2.342;2023-03-04T18:32:45;21.25;;;16.75;;
73959;SDS011;62316;48.920;2.342;2023-03-04T18:35:12;12.00;;;12.00;;
73959;SDS011;62316;48.920;2.342;2023-03-04T18:37:38;13.00;;;13.00;;
73959;SDS011;62316;48.920;2.342;2023-03-04T18:40:03;16.00;;;14.00;;
73959;SDS011;62316;48.920;2.342;2023-03-04T18:42:30;16.25;;;15.00;;
73959;SDS011;62316;48.920;2.342;2023-03-04T18:44:55;13.25;;;12.00;;
73959;SDS011;62316;48.920;2.342;2023-03-04T18:47:21;13.75;;;12.50;;
73959;SDS011;62316;48.920;2.342;2023-03-04T18:49:47;16.25;;;16.25;;
73959;SDS011;62316;48.920;2.342;2023-03-04T18:52:12;15.00;;;12.50;;
73959;SDS011;62316;48.920;2.342;2023-03-04T18:54:38;13.50;;;12.75;;
73959;SDS011;62316;48.920;2.342;2023-03-04T18:57:09;18.00;;;15.50;;
73959;SDS011;62316;48.920;2.342;2023-03-04T18:59:53;16.00;;;14.75;;
73959;SDS011;62316;48.920;2.342;2023-03-04T19:02:23;20.25;;;15.75;;
73959;SDS011;62316;48.920;2.342;2023-03-04T19:04:52;18.25;;;16.50;;
73959;SDS011;62316;48.920;2.342;2023-03-04T19:07:19;16.00;;;16.00;;
73959;SDS011;62316;48.920;2.342;2023-03-04T19:09:44;20.25;;;18.50;;
73959;SDS011;62316;48.920;2.342;2023-03-04T19:12:10;20.25;;;18.25;;
73959;SDS011;62316;48.920;2.342;2023-03-04T19:14:36;16.00;;;13.00;;
73959;SDS011;62316;48.920;2.342;2023-03-04T19:17:01;17.25;;;16.00;;
73959;SDS011;62316;48.920;2.342;2023-03-04T19:19:27;21.00;;;18.50;;
73959;SDS011;62316;48.920;2.342;2023-03-04T19:21:52;19.75;;;19.75;;
73959;SDS011;62316;48.920;2.342;2023-03-04T19:24:18;15.25;;;15.25;;
73959;SDS011;62316;48.920;2.342;2023-03-04T19:26:43;20.25;;;18.50;;
73959;SDS011;62316;48.920;2.342;2023-03-04T19:29:08;20.25;;;19.50;;
73959;SDS011;62316;48.920;2.342;2023-03-04T19:31:36;21.50;;;16.75;;
73959;SDS011;62316;48.920;2.342;2023-03-04T19:34:02;20.75;;;18.00;;
73959;SDS011;62316;48.920;2.342;2023-03-04T19:36:29;21.00;;;15.50;;
73959;SDS011;62316;48.920;2.342;2023-03-04T19:38:54;19.25;;;17.75;;
73959;SDS011;62316;48.920;2.342;2023-03-04T19:41:20;18.25;;;17.25;;
73959;SDS011;62316;48.920;2.342;2023-03-04T19:43:45;22.00;;;18.00;;
73959;SDS011;62316;48.920;2.342;2023-03-04T19:46:11;24.00;;;20.75;;
73959;SDS011;62316;48.920;2.342;2023-03-04T19:48:37;20.00;;;18.50;;
73959;SDS011;62316;48.920;2.342;2023-03-04T19:51:03;16.25;;;14.50;;
73959;SDS011;62316;48.920;2.342;2023-03-04T19:53:31;15.50;;;15.25;;
73959;SDS011;62316;48.920;2.342;2023-03-04T19:55:57;17.00;;;13.00;;
73959;SDS011;62316;48.920;2.342;2023-03-04T19:58:22;22.50;;;18.25;;
73959;SDS011;62316;48.920;2.342;2023-03-04T20:00:48;19.75;;;19.00;;
73959;SDS011;62316;48.920;2.342;2023-03-04T20:03:14;14.00;;;14.00;;
73959;SDS011;62316;48.920;2.342;2023-03-04T20:05:39;21.00;;;15.00;;
73959;SDS011;62316;48.920;2.342;2023-03-04T20:08:05;21.75;;;18.75;;
73959;SDS011;62316;48.920;2.342;2023-03-04T20:10:31;21.25;;;18.25;;
73959;SDS011;62316;48.920;2.342;2023-03-04T20:13:04;22.75;;;18.00;;
73959;SDS011;62316;48.920;2.342;2023-03-04T20:15:30;17.25;;;17.25;;
73959;SDS011;62316;48.920;2.342;2023-03-04T20:17:55;17.00;;;16.00;;
73959;SDS011;62316;48.920;2.342;2023-03-04T20:20:21;29.00;;;22.25;;
73959;SDS011;62316;48.920;2.342;2023-03-04T20:22:52;18.25;;;17.25;;
73959;SDS011;62316;48.920;2.342;2023-03-04T20:25:18;20.50;;;17.25;;
73959;SDS011;62316;48.920;2.342;2023-03-04T20:27:43;15.75;;;15.75;;
73959;SDS011;62316;48.920;2.342;2023-03-04T20:30:10;14.75;;;14.75;;
73959;SDS011;62316;48.920;2.342;2023-03-04T20:32:37;15.00;;;13.25;;
73959;SDS011;62316;48.920;2.342;2023-03-04T20:35:04;17.50;;;16.00;;
73959;SDS011;62316;48.920;2.342;2023-03-04T20:37:31;15.50;;;15.50;;
73959;SDS011;62316;48.920;2.342;2023-03-04T20:39:56;17.50;;;16.75;;
73959;SDS011;62316;48.920;2.342;2023-03-04T20:42:22;17.00;;;17.00;;
73959;SDS011;62316;48.920;2.342;2023-03-04T20:44:48;22.75;;;20.00;;
73959;SDS011;62316;48.920;2.342;2023-03-04T20:47:13;24.25;;;20.25;;
73959;SDS011;62316;48.920;2.342;2023-03-04T20:49:38;16.75;;;16.75;;
73959;SDS011;62316;48.920;2.342;2023-03-04T20:52:04;23.00;;;17.25;;
73959;SDS011;62316;48.920;2.342;2023-03-04T20:54:32;17.25;;;14.25;;
73959;SDS011;62316;48.920;2.342;2023-03-04T20:56:59;20.50;;;20.50;;
73959;SDS011;62316;48.920;2.342;2023-03-04T20:59:25;29.25;;;27.00;;
73959;SDS011;62316;48.920;2.342;2023-03-04T21:01:50;36.00;;;26.00;;
73959;SDS011;62316;48.920;2.342;2023-03-04T21:04:16;29.00;;;27.00;;
73959;SDS011;62316;48.920;2.342;2023-03-04T21:06:42;31.25;;;27.75;;
73959;SDS011;62316;48.920;2.342;2023-03-04T21:09:08;38.50;;;32.50;;
73959;SDS011;62316;48.920;2.342;2023-03-04T21:11:36;39.50;;;34.50;;
73959;SDS011;62316;48.920;2.342;2023-03-04T21:14:05;32.50;;;28.00;;
73959;SDS011;62316;48.920;2.342;2023-03-04T21:16:43;32.50;;;28.00;;
73959;SDS011;62316;48.920;2.342;2023-03-04T21:19:19;39.75;;;29.50;;